createdAt,value
2019-06-15T00:02:24.354Z,22.60
2019-06-15T00:04:50.655Z,22.60
2019-06-15T00:07:17.009Z,22.50
2019-06-15T00:09:43.339Z,22.40
2019-06-15T00:12:09.673Z,22.30
2019-06-15T00:14:35.978Z,22.20
2019-06-15T00:17:02.331Z,22.20
2019-06-15T00:19:28.661Z,22.10
2019-06-15T00:21:54.992Z,22.00
2019-06-15T00:24:34.605Z,22.00
2019-06-15T00:26:49.412Z,21.90
2019-06-15T00:29:15.724Z,21.90
2019-06-15T00:31:42.054Z,21.90
2019-06-15T00:34:08.387Z,21.90
2019-06-15T00:36:36.554Z,21.90
2019-06-15T00:39:04.839Z,21.90
2019-06-15T00:41:31.200Z,21.90
2019-06-15T00:43:57.514Z,21.80
2019-06-15T00:46:23.825Z,21.80
2019-06-15T00:48:50.471Z,21.80
2019-06-15T00:51:17.183Z,21.80
2019-06-15T00:53:43.536Z,21.80
2019-06-15T00:56:09.865Z,21.70
2019-06-15T00:58:36.194Z,21.70
2019-06-15T01:01:03.168Z,21.70
2019-06-15T01:03:29.485Z,21.80
2019-06-15T01:05:55.801Z,21.70
2019-06-15T01:08:22.130Z,21.70
2019-06-15T01:10:48.505Z,21.70
2019-06-15T01:13:14.895Z,21.70
2019-06-15T01:15:41.195Z,21.70
2019-06-15T01:18:07.556Z,21.70
2019-06-15T01:20:33.886Z,21.70
2019-06-15T01:23:00.215Z,21.70
2019-06-15T01:25:26.491Z,21.70
2019-06-15T01:27:52.880Z,21.70
2019-06-15T01:30:19.921Z,21.60
2019-06-15T01:32:46.342Z,21.70
2019-06-15T01:35:13.447Z,21.60
2019-06-15T01:37:39.836Z,21.60
2019-06-15T01:40:07.299Z,21.50
2019-06-15T01:42:33.725Z,21.60
2019-06-15T01:44:59.995Z,21.60
2019-06-15T01:47:26.302Z,21.60
2019-06-15T01:49:52.618Z,21.60
2019-06-15T01:52:18.892Z,21.60
2019-06-15T01:54:45.173Z,21.60
2019-06-15T01:57:11.507Z,21.60
2019-06-15T01:59:37.937Z,21.60
2019-06-15T02:02:04.575Z,21.60
2019-06-15T02:04:30.801Z,21.60
2019-06-15T02:06:57.136Z,21.60
2019-06-15T02:09:23.413Z,21.60
2019-06-15T02:11:49.895Z,21.60
2019-06-15T02:14:16.231Z,21.60
2019-06-15T02:16:42.671Z,21.60
2019-06-15T02:19:09.001Z,21.60
2019-06-15T02:21:35.261Z,21.50
2019-06-15T02:24:01.653Z,21.50
2019-06-15T02:26:27.986Z,21.50
2019-06-15T02:28:54.314Z,21.40
2019-06-15T02:31:20.644Z,21.40
2019-06-15T02:33:46.972Z,21.30
2019-06-15T02:36:13.237Z,21.30
2019-06-15T02:38:39.750Z,21.30
2019-06-15T02:41:06.169Z,21.30
2019-06-15T02:43:32.602Z,21.30
2019-06-15T02:45:59.048Z,21.20
2019-06-15T02:48:25.466Z,21.20
2019-06-15T02:50:51.900Z,21.20
2019-06-15T02:53:18.229Z,21.20
2019-06-15T02:55:50.651Z,21.10
2019-06-15T02:58:12.645Z,21.10
2019-06-15T03:01:00.924Z,21.10
2019-06-15T03:03:27.315Z,21.00
2019-06-15T03:05:53.725Z,21.00
2019-06-15T03:08:21.142Z,20.90
2019-06-15T03:10:47.630Z,20.90
2019-06-15T03:13:14.063Z,20.90
2019-06-15T03:15:40.400Z,20.80
2019-06-15T03:18:06.623Z,20.80
2019-06-15T03:20:32.954Z,20.80
2019-06-15T03:22:59.283Z,20.70
2019-06-15T03:25:25.613Z,20.70
2019-06-15T03:27:51.944Z,20.70
2019-06-15T03:30:20.939Z,20.60
2019-06-15T03:32:47.239Z,20.50
2019-06-15T03:35:14.316Z,20.50
2019-06-15T03:37:40.528Z,20.40
2019-06-15T03:40:06.961Z,20.30
2019-06-15T03:42:33.626Z,20.30
2019-06-15T03:44:59.942Z,20.30
2019-06-15T03:47:26.273Z,20.30
2019-06-15T03:49:52.603Z,20.30
2019-06-15T03:52:18.935Z,20.30
2019-06-15T03:54:45.265Z,20.30
2019-06-15T03:57:11.598Z,20.30
2019-06-15T03:59:37.927Z,20.30
2019-06-15T04:02:04.360Z,20.30
2019-06-15T04:04:30.669Z,20.30
2019-06-15T04:06:57.019Z,20.30
2019-06-15T04:09:23.587Z,20.30
2019-06-15T04:11:49.987Z,20.30
2019-06-15T04:14:16.327Z,20.30
2019-06-15T04:16:42.593Z,20.30
2019-06-15T04:19:08.980Z,20.30
2019-06-15T04:21:35.309Z,20.30
2019-06-15T04:24:01.650Z,20.20
2019-06-15T04:26:35.993Z,20.30
2019-06-15T04:28:56.043Z,20.20
2019-06-15T04:31:22.515Z,20.20
2019-06-15T04:33:48.913Z,20.20
2019-06-15T04:36:15.189Z,20.20
2019-06-15T04:38:41.569Z,20.20
2019-06-15T04:41:07.843Z,20.20
2019-06-15T04:43:34.536Z,20.30
2019-06-15T04:46:00.868Z,20.20
2019-06-15T04:48:27.196Z,20.20
2019-06-15T04:50:53.446Z,20.20
2019-06-15T04:53:20.062Z,20.20
2019-06-15T04:55:46.392Z,20.20
2019-06-15T04:58:12.724Z,20.30
2019-06-15T05:00:40.719Z,20.30
2019-06-15T05:03:06.982Z,20.30
2019-06-15T05:05:33.274Z,20.30
2019-06-15T05:07:59.992Z,20.30
2019-06-15T05:10:26.735Z,20.30
2019-06-15T05:12:52.977Z,20.30
2019-06-15T05:15:20.071Z,20.30
2019-06-15T05:17:46.484Z,20.40
2019-06-15T05:20:13.384Z,20.30
2019-06-15T05:22:39.714Z,20.40
2019-06-15T05:25:06.657Z,20.40
2019-06-15T05:27:33.299Z,20.40
2019-06-15T05:29:59.582Z,20.40
2019-06-15T05:32:26.176Z,20.40
2019-06-15T05:34:52.494Z,20.40
2019-06-15T05:37:18.771Z,20.40
2019-06-15T05:39:45.069Z,20.40
2019-06-15T05:42:11.381Z,20.30
2019-06-15T05:44:37.723Z,20.30
2019-06-15T05:47:04.259Z,20.40
2019-06-15T05:49:30.577Z,20.40
2019-06-15T05:51:56.937Z,20.30
2019-06-15T05:54:24.577Z,20.30
2019-06-15T05:56:50.899Z,20.40
2019-06-15T05:59:17.151Z,20.40
2019-06-15T06:01:43.564Z,20.40
2019-06-15T06:04:11.235Z,20.40
2019-06-15T06:06:37.554Z,20.50
2019-06-15T06:09:06.033Z,20.50
2019-06-15T06:11:32.267Z,20.50
2019-06-15T06:13:58.592Z,20.50
2019-06-15T06:16:24.924Z,20.60
2019-06-15T06:18:51.177Z,20.60
2019-06-15T06:21:17.688Z,20.60
2019-06-15T06:23:44.017Z,20.60
2019-06-15T06:26:10.383Z,20.70
2019-06-15T06:28:36.781Z,20.70
2019-06-15T06:31:03.315Z,20.70
2019-06-15T06:33:29.653Z,20.70
2019-06-15T06:35:55.867Z,20.80
2019-06-15T06:38:22.205Z,20.80
2019-06-15T06:40:48.558Z,20.90
2019-06-15T06:43:14.969Z,20.90
2019-06-15T06:45:42.467Z,20.90
2019-06-15T06:48:08.770Z,21.00
2019-06-15T06:50:35.074Z,21.00
2019-06-15T06:53:01.415Z,21.10
2019-06-15T06:55:27.747Z,21.10
2019-06-15T06:57:57.163Z,21.10
2019-06-15T07:00:23.167Z,21.10
2019-06-15T07:02:49.502Z,21.10
2019-06-15T07:05:15.833Z,21.10
2019-06-15T07:07:42.170Z,21.20
2019-06-15T07:10:09.156Z,21.10
2019-06-15T07:12:36.462Z,21.20
2019-06-15T07:15:04.801Z,21.20
2019-06-15T07:17:31.276Z,21.20
2019-06-15T07:19:57.706Z,21.30
2019-06-15T07:22:23.995Z,21.30
2019-06-15T07:24:50.255Z,21.40
2019-06-15T07:27:16.583Z,21.40
2019-06-15T07:29:42.890Z,21.40
2019-06-15T07:32:10.139Z,21.40
2019-06-15T07:34:36.408Z,21.40
2019-06-15T07:37:02.737Z,21.50
2019-06-15T07:39:29.036Z,21.40
2019-06-15T07:41:55.396Z,21.40
2019-06-15T07:44:21.660Z,21.30
2019-06-15T07:46:48.075Z,21.30
2019-06-15T07:49:14.371Z,21.20
2019-06-15T07:51:40.821Z,21.20
2019-06-15T07:54:07.154Z,21.20
2019-06-15T07:56:33.358Z,21.20
2019-06-15T07:58:59.714Z,21.20
2019-06-15T08:01:26.147Z,21.10
2019-06-15T08:03:52.665Z,21.10
2019-06-15T08:06:18.953Z,21.10
2019-06-15T08:08:45.349Z,21.20
2019-06-15T08:11:11.775Z,21.30
2019-06-15T08:13:38.105Z,21.40
2019-06-15T08:16:04.433Z,21.50
2019-06-15T08:18:30.764Z,21.60
2019-06-15T08:20:57.158Z,21.80
2019-06-15T08:23:23.525Z,21.90
2019-06-15T08:25:49.857Z,22.00
2019-06-15T08:28:16.187Z,22.20
2019-06-15T08:30:43.220Z,22.30
2019-06-15T08:33:10.216Z,22.40
2019-06-15T08:35:36.612Z,22.50
2019-06-15T08:38:03.604Z,22.60
2019-06-15T08:40:29.889Z,22.70
2019-06-15T08:42:56.218Z,22.80
2019-06-15T08:45:22.551Z,23.00
2019-06-15T08:47:48.760Z,23.10
2019-06-15T08:50:15.221Z,23.20
2019-06-15T08:52:41.475Z,23.30
2019-06-15T08:55:07.862Z,23.40
2019-06-15T08:57:36.364Z,23.50
2019-06-15T09:00:07.758Z,23.70
2019-06-15T09:02:34.185Z,23.80
2019-06-15T09:05:00.484Z,23.90
2019-06-15T09:07:26.782Z,24.00
2019-06-15T09:09:53.097Z,24.10
2019-06-15T09:12:19.778Z,24.10
2019-06-15T09:14:46.091Z,24.10
2019-06-15T09:17:12.743Z,24.10
2019-06-15T09:19:39.162Z,24.10
2019-06-15T09:22:05.440Z,24.10
2019-06-15T09:24:31.822Z,24.10
2019-06-15T09:26:58.153Z,24.10
2019-06-15T09:29:24.482Z,24.10
2019-06-15T09:31:50.761Z,24.10
2019-06-15T09:34:19.293Z,24.10
2019-06-15T09:36:45.626Z,24.10
2019-06-15T09:39:14.528Z,24.10
2019-06-15T09:41:39.968Z,24.10
2019-06-15T09:44:06.665Z,24.10
2019-06-15T09:46:33.097Z,24.10
2019-06-15T09:48:59.839Z,24.10
2019-06-15T09:51:26.157Z,24.20
2019-06-15T09:53:52.498Z,24.20
2019-06-15T09:56:18.728Z,24.20
2019-06-15T09:58:45.057Z,24.30
2019-06-15T10:01:11.621Z,24.30
2019-06-15T10:03:37.925Z,24.30
2019-06-15T10:06:05.664Z,24.30
2019-06-15T10:08:32.252Z,24.30
2019-06-15T10:10:58.552Z,24.30
2019-06-15T10:13:24.783Z,24.30
2019-06-15T10:15:51.112Z,24.30
2019-06-15T10:18:17.482Z,24.30
2019-06-15T10:20:43.876Z,24.40
2019-06-15T10:23:10.252Z,24.40
2019-06-15T10:25:36.652Z,24.40
2019-06-15T10:28:03.080Z,24.40
2019-06-15T10:30:29.348Z,24.40
2019-06-15T10:32:55.736Z,24.40
2019-06-15T10:35:22.067Z,24.40
2019-06-15T10:37:48.499Z,24.50
2019-06-15T10:40:15.851Z,24.50
2019-06-15T10:42:42.166Z,24.50
2019-06-15T10:45:09.331Z,24.50
2019-06-15T10:47:35.548Z,24.50
2019-06-15T10:50:07.202Z,24.50
2019-06-15T10:52:33.592Z,24.50
2019-06-15T10:54:59.909Z,24.50
2019-06-15T10:57:26.210Z,24.60
2019-06-15T10:59:57.345Z,24.60
2019-06-15T11:02:21.026Z,24.80
2019-06-15T11:04:47.361Z,24.90
2019-06-15T11:07:13.636Z,25.10
2019-06-15T11:09:40.109Z,25.20
2019-06-15T11:12:06.353Z,25.40
2019-06-15T11:14:32.668Z,25.50
2019-06-15T11:17:00.226Z,25.50
2019-06-15T11:19:26.557Z,25.60
2019-06-15T11:21:52.877Z,25.70
2019-06-15T11:24:19.174Z,25.70
2019-06-15T11:26:45.479Z,25.80
2019-06-15T11:29:11.776Z,25.80
2019-06-15T11:31:38.208Z,25.90
2019-06-15T11:34:04.539Z,25.90
2019-06-15T11:36:31.142Z,26.00
2019-06-15T11:38:57.547Z,26.00
2019-06-15T11:41:23.939Z,26.10
2019-06-15T11:43:50.270Z,26.10
2019-06-15T11:46:16.537Z,26.10
2019-06-15T11:48:42.825Z,26.10
2019-06-15T11:51:09.156Z,26.10
2019-06-15T11:53:35.709Z,26.10
2019-06-15T11:56:02.025Z,26.00
2019-06-15T11:58:28.294Z,26.00
2019-06-15T12:00:54.685Z,25.90
2019-06-15T12:03:20.972Z,25.90
2019-06-15T12:05:47.449Z,25.70
2019-06-15T12:08:13.896Z,25.60
2019-06-15T12:10:40.175Z,25.40
2019-06-15T12:13:07.935Z,25.30
2019-06-15T12:15:34.297Z,25.10
2019-06-15T12:18:00.842Z,25.10
2019-06-15T12:20:27.106Z,25.00
2019-06-15T12:22:53.403Z,25.00
2019-06-15T12:25:19.780Z,25.10
2019-06-15T12:27:46.163Z,25.20
2019-06-15T12:30:13.098Z,25.20
2019-06-15T12:32:39.414Z,25.40
2019-06-15T12:35:07.510Z,25.40
2019-06-15T12:37:34.148Z,25.50
2019-06-15T12:40:00.478Z,25.50
2019-06-15T12:42:26.808Z,25.50
2019-06-15T12:44:53.139Z,25.60
2019-06-15T12:47:19.682Z,25.70
2019-06-15T12:49:46.324Z,25.70
2019-06-15T12:52:12.744Z,25.90
2019-06-15T12:54:39.026Z,25.90
2019-06-15T12:57:05.629Z,26.00
2019-06-15T12:59:31.926Z,26.10
2019-06-15T13:01:58.401Z,26.10
2019-06-15T13:04:24.705Z,26.20
2019-06-15T13:06:51.362Z,26.20
2019-06-15T13:09:17.696Z,26.30
2019-06-15T13:11:43.986Z,26.20
2019-06-15T13:14:10.331Z,26.10
2019-06-15T13:16:39.642Z,26.10
2019-06-15T13:19:04.695Z,25.90
2019-06-15T13:21:30.994Z,25.70
2019-06-15T13:23:57.393Z,25.40
2019-06-15T13:26:23.831Z,25.00
2019-06-15T13:28:51.217Z,24.70
2019-06-15T13:31:18.630Z,24.40
2019-06-15T13:33:45.070Z,24.10
2019-06-15T13:36:12.512Z,23.90
2019-06-15T13:38:41.987Z,23.90
2019-06-15T13:41:08.362Z,23.90
2019-06-15T13:43:34.591Z,24.00
2019-06-15T13:46:00.866Z,24.10
2019-06-15T13:48:27.254Z,24.20
2019-06-15T13:50:53.582Z,24.40
2019-06-15T13:53:19.803Z,24.50
2019-06-15T13:55:46.092Z,24.70
2019-06-15T13:58:12.473Z,24.90
2019-06-15T14:00:39.059Z,25.00
2019-06-15T14:03:05.661Z,25.10
2019-06-15T14:05:31.922Z,25.30
2019-06-15T14:07:58.231Z,25.40
2019-06-15T14:10:24.640Z,25.60
2019-06-15T14:12:50.967Z,25.70
2019-06-15T14:15:17.430Z,25.90
2019-06-15T14:17:43.830Z,26.10
2019-06-15T14:20:10.526Z,26.20
2019-06-15T14:22:36.909Z,26.20
2019-06-15T14:25:05.484Z,26.20
2019-06-15T14:27:31.718Z,26.20
2019-06-15T14:29:58.177Z,26.20
2019-06-15T14:32:24.582Z,26.20
2019-06-15T14:34:50.909Z,26.20
2019-06-15T14:37:17.342Z,26.30
2019-06-15T14:39:45.308Z,26.30
2019-06-15T14:42:11.538Z,26.30
2019-06-15T14:44:37.870Z,26.30
2019-06-15T14:47:04.421Z,26.40
2019-06-15T14:49:30.838Z,26.60
2019-06-15T14:51:57.884Z,26.60
2019-06-15T14:54:26.383Z,26.70
2019-06-15T14:56:52.495Z,26.90
2019-06-15T14:59:18.818Z,26.90
2019-06-15T15:01:47.038Z,27.00
2019-06-15T15:04:13.218Z,27.10
2019-06-15T15:06:39.653Z,27.20
2019-06-15T15:09:06.555Z,27.20
2019-06-15T15:11:33.134Z,27.20
2019-06-15T15:13:59.462Z,27.20
2019-06-15T15:18:52.643Z,27.20
2019-06-15T15:21:18.867Z,27.20
2019-06-15T15:23:46.399Z,27.20
2019-06-15T15:26:12.964Z,27.20
2019-06-15T15:28:39.288Z,27.20
2019-06-15T15:31:06.434Z,27.20
2019-06-15T15:33:33.289Z,27.30
2019-06-15T15:35:59.760Z,27.30
2019-06-15T15:38:26.043Z,27.30
2019-06-15T15:40:52.591Z,27.40
2019-06-15T15:43:19.058Z,27.40
2019-06-15T15:45:46.059Z,27.50
2019-06-15T15:48:12.462Z,27.50
2019-06-15T15:50:38.821Z,27.50
2019-06-15T15:53:05.157Z,27.50
2019-06-15T15:55:31.482Z,27.50
2019-06-15T15:57:57.813Z,27.60
2019-06-15T16:00:27.877Z,27.60
2019-06-15T16:02:56.512Z,27.60
2019-06-15T16:05:22.337Z,27.60
2019-06-15T16:07:48.664Z,27.50
2019-06-15T16:10:16.054Z,27.50
2019-06-15T16:12:42.656Z,27.50
2019-06-15T16:15:09.435Z,27.50
2019-06-15T16:17:37.312Z,27.40
2019-06-15T16:20:07.541Z,27.30
2019-06-15T16:22:33.890Z,27.30
2019-06-15T16:25:01.163Z,27.20
2019-06-15T16:27:27.452Z,27.20
2019-06-15T16:29:53.831Z,27.10
2019-06-15T16:32:20.161Z,27.10
2019-06-15T16:34:47.529Z,27.10
2019-06-15T16:37:13.899Z,27.10
2019-06-15T16:39:40.313Z,27.10
2019-06-15T16:42:06.661Z,27.10
2019-06-15T16:44:32.945Z,27.00
2019-06-15T16:46:59.274Z,27.00
2019-06-15T16:49:26.814Z,27.00
2019-06-15T16:51:53.481Z,27.00
2019-06-15T16:54:19.741Z,27.00
2019-06-15T16:56:46.623Z,26.90
2019-06-15T16:59:13.022Z,26.90
2019-06-15T17:01:39.408Z,26.80
2019-06-15T17:04:06.157Z,26.70
2019-06-15T17:06:32.678Z,26.60
2019-06-15T17:08:58.914Z,26.60
2019-06-15T17:11:26.327Z,26.50
2019-06-15T17:13:53.119Z,26.40
2019-06-15T17:16:19.421Z,26.30
2019-06-15T17:18:47.133Z,26.20
2019-06-15T17:21:16.989Z,26.30
2019-06-15T17:23:41.659Z,26.30
2019-06-15T17:26:08.032Z,26.30
2019-06-15T17:28:36.735Z,26.30
2019-06-15T17:31:02.434Z,26.40
2019-06-15T17:33:37.459Z,26.60
2019-06-15T17:36:02.821Z,26.80
2019-06-15T17:38:27.133Z,27.00
2019-06-15T17:40:53.077Z,27.20
2019-06-15T17:43:19.411Z,27.50
2019-06-15T17:45:46.887Z,27.70
2019-06-15T17:48:13.413Z,27.80
2019-06-15T17:50:42.396Z,27.90
2019-06-15T17:53:08.726Z,28.00
2019-06-15T17:55:36.728Z,28.00
2019-06-15T17:58:06.520Z,27.90
2019-06-15T18:00:46.692Z,27.80
2019-06-15T18:03:11.904Z,27.70
2019-06-15T18:05:38.433Z,27.60
2019-06-15T18:08:06.735Z,27.60
2019-06-15T18:10:32.918Z,27.60
2019-06-15T18:12:59.347Z,27.60
2019-06-15T18:15:26.542Z,27.70
2019-06-15T18:17:53.029Z,27.70
2019-06-15T18:20:21.322Z,27.80
2019-06-15T18:22:47.947Z,27.90
2019-06-15T18:25:14.370Z,27.90
2019-06-15T18:27:40.757Z,27.90
2019-06-15T18:30:07.448Z,27.80
2019-06-15T18:32:37.858Z,27.70
2019-06-15T18:35:06.112Z,27.50
2019-06-15T18:37:33.823Z,27.20
2019-06-15T18:40:00.133Z,27.00
2019-06-15T18:42:26.425Z,26.70
2019-06-15T18:44:53.101Z,26.40
2019-06-15T18:47:19.431Z,26.10
2019-06-15T18:49:47.389Z,25.70
2019-06-15T18:52:13.840Z,25.40
2019-06-15T18:54:40.157Z,25.10
2019-06-15T18:57:07.407Z,24.80
2019-06-15T18:59:36.421Z,24.50
2019-06-15T19:02:02.160Z,24.30
2019-06-15T19:04:31.096Z,24.00
2019-06-15T19:06:56.599Z,23.50
2019-06-15T19:09:22.882Z,23.20
2019-06-15T19:11:49.449Z,22.80
2019-06-15T19:14:16.583Z,22.40
2019-06-15T19:16:43.042Z,22.00
2019-06-15T19:19:09.401Z,21.70
2019-06-15T19:21:35.737Z,21.50
2019-06-15T19:24:02.071Z,21.30
2019-06-15T19:26:28.616Z,21.00
2019-06-15T19:28:55.991Z,20.80
2019-06-15T19:31:22.595Z,20.70
2019-06-15T19:33:49.151Z,20.50
2019-06-15T19:36:15.563Z,20.40
2019-06-15T19:38:41.859Z,20.30
2019-06-15T19:41:08.224Z,20.20
2019-06-15T19:43:36.288Z,20.10
2019-06-15T19:46:02.835Z,20.00
2019-06-15T19:48:29.166Z,20.00
2019-06-15T19:50:56.586Z,19.90
2019-06-15T19:53:27.158Z,19.90
2019-06-15T19:55:51.298Z,19.80
2019-06-15T19:58:17.864Z,19.80
2019-06-15T20:00:46.542Z,19.80
2019-06-15T20:03:12.431Z,19.80
2019-06-15T20:05:39.016Z,19.70
2019-06-15T20:08:07.312Z,19.70
2019-06-15T20:10:36.723Z,19.70
2019-06-15T20:13:01.622Z,19.70
2019-06-15T20:15:28.056Z,19.70
2019-06-15T20:17:56.820Z,19.70
2019-06-15T20:20:22.733Z,19.70
2019-06-15T20:22:49.157Z,19.70
2019-06-15T20:25:16.055Z,19.60
2019-06-15T20:27:42.448Z,19.60
2019-06-15T20:30:09.440Z,19.50
2019-06-15T20:32:36.900Z,19.50
2019-06-15T20:35:16.615Z,19.50
2019-06-15T20:37:36.939Z,19.50
2019-06-15T20:40:06.576Z,19.50
2019-06-15T20:42:32.847Z,19.40
2019-06-15T20:44:59.234Z,19.40
2019-06-15T20:47:26.422Z,19.40
2019-06-15T20:49:53.237Z,19.40
2019-06-15T20:52:19.558Z,19.30
2019-06-15T20:54:46.434Z,19.20
2019-06-15T20:57:13.140Z,19.20
2019-06-15T20:59:39.789Z,19.20
2019-06-15T21:02:06.745Z,19.20
2019-06-15T21:04:33.373Z,19.20
2019-06-15T21:06:59.688Z,19.20
2019-06-15T21:09:27.606Z,19.20
2019-06-15T21:11:54.022Z,19.10
2019-06-15T21:14:20.533Z,19.10
2019-06-15T21:16:46.977Z,19.10
2019-06-15T21:19:13.389Z,19.10
2019-06-15T21:21:39.720Z,19.00
2019-06-15T21:24:06.487Z,19.00
2019-06-15T21:26:33.325Z,18.90
2019-06-15T21:28:59.951Z,18.90
2019-06-15T21:31:26.390Z,18.90
2019-06-15T21:33:53.011Z,18.80
2019-06-15T21:36:19.443Z,18.80
2019-06-15T21:38:46.839Z,18.70
2019-06-15T21:41:13.235Z,18.70
2019-06-15T21:43:39.559Z,18.70
2019-06-15T21:46:06.495Z,18.60
2019-06-15T21:48:33.146Z,18.50
2019-06-15T21:50:59.791Z,18.50
2019-06-15T21:53:26.710Z,18.40
2019-06-15T21:55:53.158Z,18.30
2019-06-15T21:58:19.404Z,18.20
2019-06-15T22:01:09.573Z,18.20
2019-06-15T22:03:36.823Z,18.10
2019-06-15T22:06:05.994Z,18.10
2019-06-15T22:08:31.435Z,18.00
2019-06-15T22:10:57.682Z,17.90
2019-06-15T22:13:26.417Z,17.90
2019-06-15T22:15:52.084Z,17.90
2019-06-15T22:18:18.495Z,17.90
2019-06-15T22:20:47.023Z,17.90
2019-06-15T22:23:13.020Z,17.90
2019-06-15T22:25:39.439Z,17.90
2019-06-15T22:28:06.934Z,17.90
2019-06-15T22:30:33.427Z,17.90
2019-06-15T22:32:59.722Z,17.90
2019-06-15T22:35:27.042Z,17.90
2019-06-15T22:37:53.406Z,18.00
2019-06-15T22:40:20.494Z,17.90
2019-06-15T22:42:47.208Z,18.00
2019-06-15T22:45:13.746Z,18.00
2019-06-15T22:47:40.094Z,18.00
2019-06-15T22:50:07.154Z,18.00
2019-06-15T22:52:36.229Z,17.90
2019-06-15T22:55:01.777Z,17.90
2019-06-15T22:57:28.085Z,17.90
2019-06-15T22:59:56.627Z,17.90
2019-06-15T23:02:22.588Z,17.80
2019-06-15T23:04:48.796Z,17.80
2019-06-15T23:07:16.121Z,17.80
2019-06-15T23:09:42.596Z,17.70
2019-06-15T23:12:09.028Z,17.70
2019-06-15T23:14:37.288Z,17.60
2019-06-15T23:17:03.738Z,17.60
2019-06-15T23:19:30.068Z,17.50
2019-06-15T23:21:57.278Z,17.50
2019-06-15T23:24:23.754Z,17.40
2019-06-15T23:26:50.085Z,17.40
2019-06-15T23:29:16.604Z,17.30
2019-06-15T23:31:43.061Z,17.30
2019-06-15T23:34:09.381Z,17.20
2019-06-15T23:36:56.191Z,17.20
2019-06-15T23:39:11.771Z,17.10
2019-06-15T23:41:38.031Z,17.10
2019-06-15T23:44:04.467Z,17.00
2019-06-15T23:46:30.919Z,17.00
2019-06-15T23:48:57.297Z,16.90
2019-06-15T23:51:26.239Z,16.90
2019-06-15T23:53:51.644Z,16.90
2019-06-15T23:56:17.939Z,16.80
2019-06-15T23:58:46.210Z,16.80
